createdAt,value
2023-03-02T00:02:01.958Z,80.53
2023-03-02T00:05:01.381Z,80.39
2023-03-02T00:07:32.688Z,81.43
2023-03-02T00:09:59.531Z,81.05
2023-03-02T00:12:32.145Z,81.81
2023-03-02T00:14:58.507Z,81.88
2023-03-02T00:17:28.266Z,81.70
2023-03-02T00:19:55.631Z,82.28
2023-03-02T00:22:22.053Z,81.19
2023-03-02T00:24:48.577Z,80.81
2023-03-02T00:27:15.025Z,81.12
2023-03-02T00:29:42.088Z,80.81
2023-03-02T00:32:08.936Z,81.86
2023-03-02T00:34:35.320Z,81.59
2023-03-02T00:37:01.770Z,81.90
2023-03-02T00:39:28.183Z,80.57
2023-03-02T00:41:54.576Z,81.24
2023-03-02T00:44:20.971Z,80.46
2023-03-02T00:46:47.392Z,82.20
2023-03-02T00:49:13.842Z,81.83
2023-03-02T00:51:40.262Z,81.24
2023-03-02T00:54:06.634Z,81.83
2023-03-02T00:56:33.362Z,81.95
2023-03-02T00:59:05.540Z,81.41
2023-03-02T01:01:32.106Z,81.13
2023-03-02T01:03:58.478Z,80.95
2023-03-02T01:06:24.825Z,81.79
2023-03-02T01:08:51.359Z,81.50
2023-03-02T01:11:20.464Z,82.14
2023-03-02T01:13:47.990Z,81.53
2023-03-02T01:16:15.294Z,81.00
2023-03-02T01:18:41.815Z,80.44
2023-03-02T01:21:12.050Z,81.16
2023-03-02T01:23:38.471Z,81.71
2023-03-02T01:26:07.280Z,81.03
2023-03-02T01:28:33.717Z,81.19
2023-03-02T01:31:02.532Z,82.03
2023-03-02T01:33:29.020Z,82.18
2023-03-02T01:35:55.465Z,81.19
2023-03-02T01:38:21.836Z,80.94
2023-03-02T01:40:48.222Z,81.58
2023-03-02T01:43:16.349Z,82.16
2023-03-02T01:45:43.124Z,80.48
2023-03-02T01:48:12.452Z,81.98
2023-03-02T01:50:39.471Z,81.35
2023-03-02T01:53:06.559Z,81.97
2023-03-02T01:55:34.970Z,82.11
2023-03-02T01:58:02.605Z,81.15
2023-03-02T02:00:34.593Z,82.47
2023-03-02T02:03:08.884Z,82.37
2023-03-02T02:05:39.673Z,82.35
2023-03-02T02:08:06.946Z,82.01
2023-03-02T02:10:34.030Z,83.55
2023-03-02T02:13:01.157Z,83.47
2023-03-02T02:15:27.684Z,82.53
2023-03-02T02:17:55.518Z,82.61
2023-03-02T02:20:31.095Z,82.84
2023-03-02T02:23:29.367Z,82.89
2023-03-02T02:25:55.873Z,83.33
2023-03-02T02:28:29.014Z,82.35
2023-03-02T02:31:22.428Z,83.99
2023-03-02T02:33:53.228Z,83.55
2023-03-02T02:36:23.855Z,83.81
2023-03-02T02:38:54.365Z,82.72
2023-03-02T02:41:25.649Z,83.34
2023-03-02T02:43:52.216Z,82.52
2023-03-02T02:46:18.901Z,82.68
2023-03-02T02:48:45.330Z,83.40
2023-03-02T02:51:18.381Z,83.15
2023-03-02T02:53:49.906Z,83.13
2023-03-02T02:56:17.407Z,83.44
2023-03-02T02:58:49.124Z,84.12
2023-03-02T03:01:18.789Z,84.00
2023-03-02T03:03:57.670Z,83.33
2023-03-02T03:06:27.863Z,83.18
2023-03-02T03:08:58.278Z,84.38
2023-03-02T03:11:27.836Z,83.95
2023-03-02T03:13:59.491Z,84.48
2023-03-02T03:16:27.990Z,83.34
2023-03-02T03:18:58.695Z,83.52
2023-03-02T03:21:26.200Z,85.16
2023-03-02T03:23:52.565Z,84.14
2023-03-02T03:26:19.255Z,84.63
2023-03-02T03:28:45.618Z,83.49
2023-03-02T03:31:12.202Z,83.44
2023-03-02T03:33:38.654Z,83.96
2023-03-02T03:36:05.600Z,84.67
2023-03-02T03:38:32.560Z,84.03
2023-03-02T03:40:58.995Z,83.39
2023-03-02T03:43:25.345Z,84.86
2023-03-02T03:45:52.032Z,84.80
2023-03-02T03:48:18.478Z,85.22
2023-03-02T03:50:45.130Z,84.68
2023-03-02T03:53:11.581Z,84.62
2023-03-02T03:55:37.981Z,85.05
2023-03-02T03:58:04.365Z,85.27
2023-03-02T04:00:30.849Z,85.72
2023-03-02T04:02:57.387Z,85.88
2023-03-02T04:05:23.987Z,85.58
2023-03-02T04:07:50.477Z,85.74
2023-03-02T04:10:17.014Z,84.76
2023-03-02T04:12:43.481Z,85.51
2023-03-02T04:15:15.975Z,85.17
2023-03-02T04:17:44.875Z,84.87
2023-03-02T04:20:16.631Z,85.06
2023-03-02T04:22:45.836Z,85.33
2023-03-02T04:25:13.439Z,84.79
2023-03-02T04:27:40.502Z,84.86
2023-03-02T04:30:08.424Z,85.22
2023-03-02T04:32:35.027Z,85.53
2023-03-02T04:35:01.445Z,85.44
2023-03-02T04:37:27.882Z,85.61
2023-03-02T04:39:54.297Z,86.45
2023-03-02T04:42:21.226Z,85.62
2023-03-02T04:44:48.162Z,86.79
2023-03-02T04:47:14.664Z,86.27
2023-03-02T04:49:41.221Z,85.51
2023-03-02T04:52:07.695Z,86.21
2023-03-02T04:54:34.221Z,86.20
2023-03-02T04:57:00.598Z,85.70
2023-03-02T04:59:28.877Z,85.06
2023-03-02T05:01:58.568Z,85.50
2023-03-02T05:04:26.230Z,85.77
2023-03-02T05:06:52.792Z,84.80
2023-03-02T05:09:19.400Z,85.08
2023-03-02T05:11:45.858Z,85.49
2023-03-02T05:14:13.216Z,86.01
2023-03-02T05:16:41.713Z,85.54
2023-03-02T05:19:10.669Z,86.59
2023-03-02T05:21:37.205Z,86.47
2023-03-02T05:24:03.999Z,86.36
2023-03-02T05:26:30.805Z,85.71
2023-03-02T05:28:57.583Z,85.76
2023-03-02T05:31:29.922Z,86.32
2023-03-02T05:33:56.584Z,86.33
2023-03-02T05:36:23.434Z,85.68
2023-03-02T05:38:50.105Z,86.50
2023-03-02T05:41:16.581Z,86.48
2023-03-02T05:43:43.294Z,86.49
2023-03-02T05:46:09.684Z,87.05
2023-03-02T05:48:36.051Z,86.21
2023-03-02T05:51:02.533Z,87.10
2023-03-02T05:53:28.971Z,86.75
2023-03-02T05:55:55.550Z,86.15
2023-03-02T05:58:22.089Z,87.09
2023-03-02T06:00:49.087Z,87.15
2023-03-02T06:03:16.795Z,86.41
2023-03-02T06:05:43.743Z,87.20
2023-03-02T06:08:10.348Z,86.49
2023-03-02T06:10:36.882Z,87.20
2023-03-02T06:13:03.228Z,86.95
2023-03-02T06:15:29.795Z,86.54
2023-03-02T06:17:57.213Z,86.82
2023-03-02T06:20:23.980Z,86.53
2023-03-02T06:22:50.410Z,86.92
2023-03-02T06:25:25.913Z,86.42
2023-03-02T06:27:53.697Z,87.04
2023-03-02T06:30:22.810Z,86.25
2023-03-02T06:32:49.346Z,85.63
2023-03-02T06:35:16.564Z,85.53
2023-03-02T06:37:44.317Z,84.70
2023-03-02T06:40:13.523Z,84.82
2023-03-02T06:42:41.353Z,84.90
2023-03-02T06:45:08.805Z,84.88
2023-03-02T06:47:35.340Z,83.66
2023-03-02T06:50:02.103Z,82.47
2023-03-02T06:52:28.837Z,82.75
2023-03-02T06:54:56.296Z,82.09
2023-03-02T06:57:23.362Z,81.76
2023-03-02T06:59:49.752Z,82.37
2023-03-02T07:02:16.132Z,80.53
2023-03-02T07:04:42.576Z,81.04
2023-03-02T07:07:09.110Z,80.56
2023-03-02T07:09:35.819Z,81.28
2023-03-02T07:12:02.352Z,80.07
2023-03-02T07:14:28.743Z,80.26
2023-03-02T07:16:57.408Z,79.03
2023-03-02T07:19:23.974Z,79.91
2023-03-02T07:21:51.453Z,79.59
2023-03-02T07:24:17.896Z,79.59
2023-03-02T07:26:45.450Z,78.96
2023-03-02T07:29:11.789Z,78.47
2023-03-02T07:31:38.242Z,77.82
2023-03-02T07:34:04.707Z,78.42
2023-03-02T07:36:31.090Z,78.65
2023-03-02T07:38:57.540Z,77.25
2023-03-02T07:41:23.897Z,77.20
2023-03-02T07:43:50.249Z,76.78
2023-03-02T07:46:16.788Z,76.87
2023-03-02T07:48:43.379Z,74.93
2023-03-02T07:51:09.838Z,75.16
2023-03-02T07:53:36.361Z,74.98
2023-03-02T07:56:07.825Z,72.91
2023-03-02T07:58:35.345Z,73.30
2023-03-02T08:01:01.953Z,73.08
2023-03-02T08:03:28.463Z,73.15
2023-03-02T08:05:55.139Z,71.57
2023-03-02T08:08:21.505Z,70.97
2023-03-02T08:10:47.897Z,71.58
2023-03-02T08:13:14.290Z,71.85
2023-03-02T08:15:40.634Z,69.63
2023-03-02T08:18:06.979Z,71.06
2023-03-02T08:20:33.446Z,69.68
2023-03-02T08:22:59.882Z,69.06
2023-03-02T08:25:26.482Z,69.07
2023-03-02T08:27:52.839Z,69.01
2023-03-02T08:30:19.492Z,68.15
2023-03-02T08:32:46.068Z,65.96
2023-03-02T08:35:12.942Z,65.74
2023-03-02T08:37:39.345Z,64.96
2023-03-02T08:40:06.385Z,64.75
2023-03-02T08:42:32.773Z,64.69
2023-03-02T08:44:59.126Z,63.52
2023-03-02T08:47:25.520Z,61.57
2023-03-02T08:49:51.922Z,61.87
2023-03-02T08:52:18.380Z,60.30
2023-03-02T08:54:44.954Z,61.28
2023-03-02T08:57:11.950Z,62.14
2023-03-02T08:59:38.631Z,60.32
2023-03-02T09:02:05.370Z,59.94
2023-03-02T09:04:31.972Z,59.38
2023-03-02T09:06:58.420Z,58.88
2023-03-02T09:09:24.965Z,58.55
2023-03-02T09:11:51.313Z,59.75
2023-03-02T09:14:17.793Z,59.17
2023-03-02T09:16:45.336Z,58.03
2023-03-02T09:19:13.340Z,58.31
2023-03-02T09:21:39.776Z,57.43
2023-03-02T09:24:06.391Z,57.83
2023-03-02T09:26:32.773Z,56.84
2023-03-02T09:28:59.180Z,56.38
2023-03-02T09:31:25.663Z,57.14
2023-03-02T09:33:52.418Z,56.74
2023-03-02T09:36:23.634Z,57.01
2023-03-02T09:38:50.116Z,56.39
2023-03-02T09:41:37.032Z,56.22
2023-03-02T09:44:30.722Z,55.57
2023-03-02T09:47:04.793Z,53.85
2023-03-02T09:49:50.477Z,54.37
2023-03-02T09:52:35.250Z,53.95
2023-03-02T09:55:27.647Z,53.50
2023-03-02T09:57:55.809Z,53.46
2023-03-02T10:00:28.391Z,52.66
2023-03-02T10:03:17.414Z,52.73
2023-03-02T10:05:47.589Z,53.60
2023-03-02T10:08:21.002Z,53.45
2023-03-02T10:11:05.150Z,52.21
2023-03-02T10:13:42.137Z,52.01
2023-03-02T10:16:29.580Z,52.64
2023-03-02T10:19:05.734Z,52.12
2023-03-02T10:21:39.445Z,52.40
2023-03-02T10:24:17.060Z,52.97
2023-03-02T10:26:46.572Z,51.87
2023-03-02T10:29:29.344Z,52.54
2023-03-02T10:32:16.169Z,51.63
2023-03-02T10:34:42.664Z,51.49
2023-03-02T10:37:15.740Z,51.81
2023-03-02T10:39:42.771Z,52.62
2023-03-02T10:42:21.233Z,51.25
2023-03-02T10:44:54.062Z,50.93
2023-03-02T10:47:26.750Z,51.61
2023-03-02T10:49:55.292Z,51.84
2023-03-02T10:52:26.933Z,51.84
2023-03-02T10:55:13.232Z,51.44
2023-03-02T10:57:41.904Z,50.13
2023-03-02T11:00:25.446Z,49.87
2023-03-02T11:03:04.099Z,50.88
2023-03-02T11:05:37.157Z,51.07
2023-03-02T11:08:19.466Z,51.66
2023-03-02T11:11:01.414Z,51.77
2023-03-02T11:13:39.462Z,50.93
2023-03-02T11:16:18.198Z,50.38
2023-03-02T11:19:06.588Z,49.88
2023-03-02T11:21:35.672Z,50.74
2023-03-02T11:24:36.733Z,50.83
2023-03-02T11:27:19.958Z,49.76
2023-03-02T11:30:04.540Z,47.75
2023-03-02T11:32:44.942Z,49.20
2023-03-02T11:35:44.779Z,49.26
2023-03-02T11:38:36.596Z,49.68
2023-03-02T11:41:13.766Z,49.31
2023-03-02T11:43:40.291Z,47.81
2023-03-02T11:46:21.717Z,48.42
2023-03-02T11:48:52.820Z,48.01
2023-03-02T11:51:27.864Z,49.48
2023-03-02T11:54:05.034Z,48.53
2023-03-02T11:56:35.109Z,48.64
2023-03-02T11:59:07.527Z,48.07
2023-03-02T12:01:36.162Z,47.49
2023-03-02T12:04:25.216Z,47.21
2023-03-02T12:06:51.611Z,48.63
2023-03-02T12:09:23.776Z,47.17
2023-03-02T12:11:57.153Z,47.59
2023-03-02T12:14:39.070Z,48.42
2023-03-02T12:17:27.498Z,48.37
2023-03-02T12:20:07.256Z,47.48
2023-03-02T12:22:34.921Z,47.38
2023-03-02T12:25:25.108Z,46.07
2023-03-02T12:27:53.905Z,47.04
2023-03-02T12:30:28.499Z,46.64
2023-03-02T12:33:19.253Z,47.06
2023-03-02T12:35:47.203Z,47.05
2023-03-02T12:38:22.779Z,46.32
2023-03-02T12:41:04.214Z,46.88
2023-03-02T12:43:41.372Z,45.99
2023-03-02T12:46:30.774Z,46.03
2023-03-02T12:49:01.250Z,45.95
2023-03-02T12:51:32.251Z,46.26
2023-03-02T12:54:12.973Z,46.31
2023-03-02T12:56:39.470Z,46.15
2023-03-02T12:59:05.884Z,47.02
2023-03-02T13:01:33.884Z,45.47
2023-03-02T13:04:00.548Z,45.05
2023-03-02T13:06:31.579Z,44.88
2023-03-02T13:09:00.361Z,45.10
2023-03-02T13:11:31.796Z,45.31
2023-03-02T13:13:59.874Z,45.61
2023-03-02T13:16:35.209Z,46.00
2023-03-02T13:19:18.240Z,46.51
2023-03-02T13:21:44.855Z,44.38
2023-03-02T13:24:34.464Z,45.78
2023-03-02T13:27:07.047Z,45.13
2023-03-02T13:29:33.854Z,45.08
2023-03-02T13:32:24.683Z,46.49
2023-03-02T13:34:55.655Z,46.07
2023-03-02T13:37:24.889Z,45.33
2023-03-02T13:39:59.106Z,45.69
2023-03-02T13:42:36.177Z,45.23
2023-03-02T13:45:24.820Z,45.11
2023-03-02T13:47:52.201Z,45.69
2023-03-02T13:50:22.067Z,45.51
2023-03-02T13:52:49.351Z,45.68
2023-03-02T13:55:20.729Z,45.67
2023-03-02T13:57:48.929Z,45.99
2023-03-02T14:00:28.341Z,46.29
2023-03-02T14:02:54.701Z,45.16
2023-03-02T14:05:32.737Z,45.73
2023-03-02T14:08:00.544Z,45.40
2023-03-02T14:10:27.204Z,46.39
2023-03-02T14:12:59.692Z,46.67
2023-03-02T14:15:26.493Z,46.67
2023-03-02T14:17:52.968Z,46.62
2023-03-02T14:20:20.179Z,46.88
2023-03-02T14:22:47.919Z,45.46
2023-03-02T14:25:15.097Z,46.21
2023-03-02T14:27:42.466Z,47.16
2023-03-02T14:30:18.762Z,46.55
2023-03-02T14:32:45.613Z,47.15
2023-03-02T14:35:14.347Z,46.45
2023-03-02T14:37:43.636Z,46.22
2023-03-02T14:40:16.913Z,46.56
2023-03-02T14:42:43.346Z,46.48
2023-03-02T14:45:10.747Z,46.50
2023-03-02T14:47:37.149Z,46.54
2023-03-02T14:50:05.260Z,47.12
2023-03-02T14:52:44.148Z,47.15
2023-03-02T14:55:20.115Z,47.56
2023-03-02T14:57:49.980Z,48.30
2023-03-02T15:00:16.961Z,47.98
2023-03-02T15:02:43.457Z,48.55
2023-03-02T15:05:10.197Z,48.59
2023-03-02T15:07:38.872Z,48.41
2023-03-02T15:10:06.057Z,47.73
2023-03-02T15:12:32.461Z,47.26
2023-03-02T15:14:58.874Z,48.17
2023-03-02T15:17:25.486Z,48.87
2023-03-02T15:19:51.922Z,48.66
2023-03-02T15:22:18.360Z,49.07
2023-03-02T15:24:44.742Z,48.92
2023-03-02T15:27:11.146Z,49.94
2023-03-02T15:29:37.577Z,50.00
2023-03-02T15:32:04.235Z,49.62
2023-03-02T15:34:30.595Z,50.11
2023-03-02T15:36:56.954Z,49.34
2023-03-02T15:39:23.362Z,50.52
2023-03-02T15:41:49.738Z,50.22
2023-03-02T15:44:24.498Z,51.38
2023-03-02T15:46:54.164Z,50.87
2023-03-02T15:49:22.805Z,51.91
2023-03-02T15:51:51.825Z,53.02
2023-03-02T15:54:18.784Z,52.85
2023-03-02T15:56:45.284Z,52.73
2023-03-02T15:59:11.946Z,53.61
2023-03-02T16:01:38.489Z,54.19
2023-03-02T16:04:06.142Z,53.48
2023-03-02T16:06:32.504Z,54.67
2023-03-02T16:08:58.888Z,54.18
2023-03-02T16:11:25.255Z,54.67
2023-03-02T16:13:52.259Z,54.83
2023-03-02T16:16:20.589Z,54.74
2023-03-02T16:18:55.225Z,55.20
2023-03-02T16:21:22.082Z,55.38
2023-03-02T16:23:48.553Z,54.95
2023-03-02T16:26:18.362Z,55.69
2023-03-02T16:28:45.203Z,55.34
2023-03-02T16:31:17.289Z,55.94
2023-03-02T16:33:44.702Z,56.60
2023-03-02T16:36:12.527Z,57.10
2023-03-02T16:38:39.175Z,56.80
2023-03-02T16:41:12.658Z,57.41
2023-03-02T16:43:51.254Z,57.30
2023-03-02T16:46:18.612Z,57.35
2023-03-02T16:48:45.663Z,57.63
2023-03-02T16:51:12.733Z,57.96
2023-03-02T16:53:40.715Z,58.66
2023-03-02T16:56:09.381Z,58.54
2023-03-02T16:58:38.217Z,58.78
2023-03-02T17:01:06.605Z,58.60
2023-03-02T17:03:34.122Z,58.91
2023-03-02T17:06:01.422Z,59.30
2023-03-02T17:08:28.487Z,59.13
2023-03-02T17:10:54.871Z,59.05
2023-03-02T17:13:21.308Z,59.47
2023-03-02T17:15:47.741Z,60.28
2023-03-02T17:18:14.101Z,59.67
2023-03-02T17:20:40.751Z,60.36
2023-03-02T17:23:07.286Z,60.39
2023-03-02T17:25:33.750Z,60.96
2023-03-02T17:28:00.165Z,61.79
2023-03-02T17:30:26.796Z,61.48
2023-03-02T17:32:53.129Z,62.00
2023-03-02T17:35:19.712Z,61.95
2023-03-02T17:37:46.178Z,61.94
2023-03-02T17:40:15.288Z,61.76
2023-03-02T17:42:41.843Z,61.66
2023-03-02T17:45:08.848Z,62.06
2023-03-02T17:47:35.274Z,61.74
2023-03-02T17:50:04.034Z,61.75
2023-03-02T17:52:30.640Z,62.10
2023-03-02T17:54:56.998Z,62.57
2023-03-02T17:57:24.412Z,62.81
2023-03-02T17:59:50.935Z,62.25
2023-03-02T18:02:18.321Z,62.95
2023-03-02T18:04:45.627Z,62.50
2023-03-02T18:07:13.117Z,62.75
2023-03-02T18:09:39.586Z,63.45
2023-03-02T18:12:07.453Z,63.50
2023-03-02T18:14:34.562Z,63.19
2023-03-02T18:17:01.871Z,63.58
2023-03-02T18:19:28.237Z,63.31
2023-03-02T18:21:54.718Z,63.08
2023-03-02T18:24:21.312Z,63.57
2023-03-02T18:26:47.711Z,63.80
2023-03-02T18:29:14.093Z,64.38
2023-03-02T18:31:40.544Z,64.30
2023-03-02T18:34:07.067Z,64.45
2023-03-02T18:36:33.440Z,64.60
2023-03-02T18:38:59.891Z,64.88
2023-03-02T18:41:26.424Z,64.79
2023-03-02T18:43:52.878Z,65.17
2023-03-02T18:46:21.877Z,65.28
2023-03-02T18:48:50.218Z,65.40
2023-03-02T18:51:18.682Z,65.43
2023-03-02T18:53:45.580Z,65.72
2023-03-02T18:56:12.581Z,65.79
2023-03-02T18:58:39.380Z,66.41
2023-03-02T19:01:06.615Z,66.36
2023-03-02T19:03:35.390Z,66.75
2023-03-02T19:06:01.849Z,67.20
2023-03-02T19:08:29.524Z,67.00
2023-03-02T19:10:55.995Z,66.80
2023-03-02T19:13:23.227Z,66.37
2023-03-02T19:15:50.293Z,66.30
2023-03-02T19:18:18.602Z,66.37
2023-03-02T19:20:46.753Z,66.84
2023-03-02T19:23:13.393Z,67.24
2023-03-02T19:25:39.998Z,67.41
2023-03-02T19:28:07.301Z,67.53
2023-03-02T19:30:34.646Z,68.07
2023-03-02T19:33:02.284Z,67.70
2023-03-02T19:35:29.951Z,68.17
2023-03-02T19:37:56.677Z,68.20
2023-03-02T19:40:26.098Z,68.55
2023-03-02T19:42:54.086Z,69.23
2023-03-02T19:45:32.299Z,69.38
2023-03-02T19:48:00.620Z,69.84
2023-03-02T19:50:28.305Z,69.46
2023-03-02T19:52:55.151Z,69.50
2023-03-02T19:55:24.147Z,69.56
2023-03-02T19:57:56.272Z,69.95
2023-03-02T20:00:24.058Z,70.16
2023-03-02T20:02:50.916Z,69.87
2023-03-02T20:05:18.010Z,70.35
2023-03-02T20:07:44.649Z,70.38
2023-03-02T20:10:14.156Z,71.65
2023-03-02T20:12:40.491Z,70.72
2023-03-02T20:15:07.339Z,71.19
2023-03-02T20:17:33.861Z,71.18
2023-03-02T20:20:01.223Z,71.37
2023-03-02T20:22:27.806Z,72.05
2023-03-02T20:24:54.194Z,72.16
2023-03-02T20:27:21.138Z,70.88
2023-03-02T20:29:47.865Z,72.24
2023-03-02T20:32:15.241Z,72.27
2023-03-02T20:34:43.024Z,71.37
2023-03-02T20:37:12.202Z,72.53
2023-03-02T20:39:41.377Z,72.54
2023-03-02T20:42:08.686Z,71.93
2023-03-02T20:44:35.793Z,72.69
2023-03-02T20:47:08.116Z,72.21
2023-03-02T20:49:36.413Z,72.67
2023-03-02T20:52:03.679Z,72.96
2023-03-02T20:54:33.754Z,73.32
2023-03-02T20:57:00.198Z,73.88
2023-03-02T20:59:27.185Z,73.88
2023-03-02T21:01:54.124Z,73.43
2023-03-02T21:04:21.030Z,74.07
2023-03-02T21:06:47.862Z,74.37
2023-03-02T21:09:14.821Z,74.29
2023-03-02T21:11:41.348Z,74.78
2023-03-02T21:14:08.174Z,74.62
2023-03-02T21:16:38.521Z,74.43
2023-03-02T21:19:08.612Z,74.08
2023-03-02T21:21:41.741Z,74.22
2023-03-02T21:24:16.566Z,75.03
2023-03-02T21:26:44.822Z,74.48
2023-03-02T21:29:13.183Z,74.72
2023-03-02T21:31:42.140Z,74.39
2023-03-02T21:34:08.642Z,75.16
2023-03-02T21:36:35.113Z,75.75
2023-03-02T21:39:02.248Z,75.66
2023-03-02T21:41:28.722Z,75.47
2023-03-02T21:43:55.185Z,75.25
2023-03-02T21:46:23.000Z,76.18
2023-03-02T21:48:51.301Z,76.00
2023-03-02T21:51:17.898Z,76.35
2023-03-02T21:53:44.611Z,75.71
2023-03-02T21:56:20.241Z,76.64
2023-03-02T21:58:48.558Z,76.35
2023-03-02T22:01:15.814Z,76.53
2023-03-02T22:03:43.143Z,76.22
2023-03-02T22:06:24.879Z,76.66
2023-03-02T22:08:51.762Z,76.78
2023-03-02T22:11:23.769Z,76.72
2023-03-02T22:13:52.017Z,76.68
2023-03-02T22:16:19.961Z,76.78
2023-03-02T22:18:48.444Z,76.48
2023-03-02T22:21:30.046Z,76.83
2023-03-02T22:24:09.832Z,77.36
2023-03-02T22:26:40.945Z,77.16
2023-03-02T22:29:23.999Z,76.92
2023-03-02T22:31:53.135Z,77.37
2023-03-02T22:34:29.292Z,76.89
2023-03-02T22:37:02.984Z,77.49
2023-03-02T22:39:32.934Z,77.72
2023-03-02T22:42:06.559Z,77.58
2023-03-02T22:44:33.520Z,77.52
2023-03-02T22:47:00.044Z,77.48
2023-03-02T22:49:28.641Z,78.01
2023-03-02T22:52:00.330Z,77.12
2023-03-02T22:54:36.149Z,77.44
2023-03-02T22:57:02.893Z,76.67
2023-03-02T22:59:36.399Z,76.74
2023-03-02T23:02:17.653Z,77.54
2023-03-02T23:04:46.431Z,77.23
2023-03-02T23:07:25.800Z,77.72
2023-03-02T23:09:52.204Z,77.21
2023-03-02T23:12:26.977Z,77.83
2023-03-02T23:14:57.957Z,77.56
2023-03-02T23:17:31.681Z,77.02
2023-03-02T23:19:58.268Z,77.65
2023-03-02T23:22:28.417Z,77.15
2023-03-02T23:24:55.519Z,76.92
2023-03-02T23:27:21.994Z,77.52
2023-03-02T23:29:48.435Z,77.85
2023-03-02T23:32:16.259Z,77.28
2023-03-02T23:34:43.554Z,78.40
2023-03-02T23:37:10.014Z,77.94
2023-03-02T23:39:36.389Z,78.41
2023-03-02T23:42:02.993Z,77.91
2023-03-02T23:44:29.484Z,78.63
2023-03-02T23:46:55.845Z,78.09
2023-03-02T23:49:22.383Z,78.00
2023-03-02T23:51:48.826Z,77.13
2023-03-02T23:54:15.238Z,78.20
2023-03-02T23:56:41.718Z,79.12
2023-03-02T23:59:08.130Z,78.64
